sensor_id;sensor_type;location;lat;lon;timestamp;P1;durP1;ratioP1;P2;durP2;ratioP2
21743;SDS011;11034;48.556;9.342;2022-11-04T06:05:59;1.38;;;0.95;;
21743;SDS011;11034;48.556;9.342;2022-11-04T06:17:19;7.55;;;1.13;;
21743;SDS011;11034;48.556;9.342;2022-11-04T06:24:48;1.88;;;1.13;;
21743;SDS011;11034;48.556;9.342;2022-11-04T06:34:42;1.73;;;0.93;;
21743;SDS011;11034;48.556;9.342;2022-11-04T06:49:14;3.42;;;0.82;;
21743;SDS011;11034;48.556;9.342;2022-11-04T06:55:53;3.15;;;0.90;;
21743;SDS011;11034;48.556;9.342;2022-11-04T07:44:34;2.78;;;1.60;;
21743;SDS011;11034;48.556;9.342;2022-11-04T08:14:13;4.57;;;1.30;;
21743;SDS011;11034;48.556;9.342;2022-11-04T08:16:49;1.85;;;1.10;;
21743;SDS011;11034;48.556;9.342;2022-11-04T08:19:23;1.48;;;1.30;;
21743;SDS011;11034;48.556;9.342;2022-11-04T08:22:03;2.90;;;1.20;;
21743;SDS011;11034;48.556;9.342;2022-11-04T08:24:36;2.22;;;1.20;;
21743;SDS011;11034;48.556;9.342;2022-11-04T08:27:11;2.47;;;1.00;;
21743;SDS011;11034;48.556;9.342;2022-11-04T08:30:01;2.97;;;0.90;;
21743;SDS011;11034;48.556;9.342;2022-11-04T08:32:29;1.75;;;1.00;;
21743;SDS011;11034;48.556;9.342;2022-11-04T08:34:58;2.90;;;1.00;;
21743;SDS011;11034;48.556;9.342;2022-11-04T08:37:28;2.38;;;1.10;;
21743;SDS011;11034;48.556;9.342;2022-11-04T08:40:05;1.75;;;1.00;;
21743;SDS011;11034;48.556;9.342;2022-11-04T08:42:37;2.33;;;1.00;;
21743;SDS011;11034;48.556;9.342;2022-11-04T08:45:10;1.20;;;0.80;;
21743;SDS011;11034;48.556;9.342;2022-11-04T08:48:20;4.78;;;1.55;;
21743;SDS011;11034;48.556;9.342;2022-11-04T08:51:40;5.18;;;1.23;;
21743;SDS011;11034;48.556;9.342;2022-11-04T11:31:08;9.10;;;1.45;;
21743;SDS011;11034;48.556;9.342;2022-11-04T11:38:00;3.88;;;1.10;;
21743;SDS011;11034;48.556;9.342;2022-11-04T11:44:32;10.85;;;1.80;;
21743;SDS011;11034;48.556;9.342;2022-11-04T11:47:49;34.22;;;11.10;;
21743;SDS011;11034;48.556;9.342;2022-11-04T11:50:32;23.17;;;5.80;;
21743;SDS011;11034;48.556;9.342;2022-11-04T11:53:12;6.07;;;1.70;;
21743;SDS011;11034;48.556;9.342;2022-11-04T11:55:42;4.50;;;1.35;;
21743;SDS011;11034;48.556;9.342;2022-11-04T11:58:18;4.50;;;1.27;;
21743;SDS011;11034;48.556;9.342;2022-11-04T12:01:14;6.97;;;3.35;;
21743;SDS011;11034;48.556;9.342;2022-11-04T12:03:55;4.88;;;2.70;;
21743;SDS011;11034;48.556;9.342;2022-11-04T12:06:49;5.43;;;1.50;;
21743;SDS011;11034;48.556;9.342;2022-11-04T12:10:21;7.25;;;1.15;;
21743;SDS011;11034;48.556;9.342;2022-11-04T12:13:37;3.65;;;1.65;;
21743;SDS011;11034;48.556;9.342;2022-11-04T12:16:48;3.88;;;1.45;;
21743;SDS011;11034;48.556;9.342;2022-11-04T12:20:17;3.53;;;1.17;;
21743;SDS011;11034;48.556;9.342;2022-11-04T12:22:56;5.63;;;1.33;;
21743;SDS011;11034;48.556;9.342;2022-11-04T12:25:38;4.68;;;1.40;;
21743;SDS011;11034;48.556;9.342;2022-11-04T12:28:14;5.45;;;1.25;;
21743;SDS011;11034;48.556;9.342;2022-11-04T12:30:57;5.45;;;1.40;;
21743;SDS011;11034;48.556;9.342;2022-11-04T12:33:36;5.82;;;1.33;;
21743;SDS011;11034;48.556;9.342;2022-11-04T12:36:23;5.20;;;1.35;;
21743;SDS011;11034;48.556;9.342;2022-11-04T12:39:15;5.60;;;1.23;;
21743;SDS011;11034;48.556;9.342;2022-11-04T12:42:01;6.18;;;1.33;;
21743;SDS011;11034;48.556;9.342;2022-11-04T12:44:51;5.20;;;1.17;;
21743;SDS011;11034;48.556;9.342;2022-11-04T12:47:31;6.50;;;1.55;;
21743;SDS011;11034;48.556;9.342;2022-11-04T12:50:11;4.13;;;1.10;;
21743;SDS011;11034;48.556;9.342;2022-11-04T12:53:05;5.95;;;1.30;;
21743;SDS011;11034;48.556;9.342;2022-11-04T12:56:02;4.05;;;1.08;;
21743;SDS011;11034;48.556;9.342;2022-11-04T12:59:05;4.97;;;1.40;;
21743;SDS011;11034;48.556;9.342;2022-11-04T13:01:56;9.20;;;1.85;;
21743;SDS011;11034;48.556;9.342;2022-11-04T13:05:08;5.97;;;1.75;;
21743;SDS011;11034;48.556;9.342;2022-11-04T13:08:06;4.63;;;1.67;;
21743;SDS011;11034;48.556;9.342;2022-11-04T13:10:46;5.43;;;1.30;;
21743;SDS011;11034;48.556;9.342;2022-11-04T13:13:33;4.03;;;1.00;;
21743;SDS011;11034;48.556;9.342;2022-11-04T13:16:21;7.85;;;1.60;;
21743;SDS011;11034;48.556;9.342;2022-11-04T13:19:04;4.10;;;1.10;;
21743;SDS011;11034;48.556;9.342;2022-11-04T13:21:40;5.15;;;1.33;;
21743;SDS011;11034;48.556;9.342;2022-11-04T13:24:25;5.20;;;1.50;;
21743;SDS011;11034;48.556;9.342;2022-11-04T13:26:57;6.18;;;1.33;;
21743;SDS011;11034;48.556;9.342;2022-11-04T13:29:28;3.63;;;1.17;;
21743;SDS011;11034;48.556;9.342;2022-11-04T13:32:00;6.45;;;1.60;;
21743;SDS011;11034;48.556;9.342;2022-11-04T13:34:39;4.20;;;1.00;;
21743;SDS011;11034;48.556;9.342;2022-11-04T13:37:17;4.50;;;1.52;;
21743;SDS011;11034;48.556;9.342;2022-11-04T13:39:53;6.15;;;2.38;;
21743;SDS011;11034;48.556;9.342;2022-11-04T13:42:28;7.00;;;1.60;;
21743;SDS011;11034;48.556;9.342;2022-11-04T13:45:08;5.38;;;1.20;;
21743;SDS011;11034;48.556;9.342;2022-11-04T13:47:43;5.53;;;1.52;;
21743;SDS011;11034;48.556;9.342;2022-11-04T13:50:26;5.38;;;1.00;;
21743;SDS011;11034;48.556;9.342;2022-11-04T13:52:59;4.10;;;1.13;;
21743;SDS011;11034;48.556;9.342;2022-11-04T13:55:29;4.00;;;1.10;;
21743;SDS011;11034;48.556;9.342;2022-11-04T13:57:58;4.25;;;1.20;;
21743;SDS011;11034;48.556;9.342;2022-11-04T14:00:28;4.18;;;1.27;;
21743;SDS011;11034;48.556;9.342;2022-11-04T14:02:57;4.20;;;1.13;;
21743;SDS011;11034;48.556;9.342;2022-11-04T14:08:33;6.68;;;1.20;;
21743;SDS011;11034;48.556;9.342;2022-11-04T14:11:04;5.43;;;1.25;;
21743;SDS011;11034;48.556;9.342;2022-11-04T14:13:40;5.30;;;1.38;;
21743;SDS011;11034;48.556;9.342;2022-11-04T14:16:44;5.70;;;1.40;;
21743;SDS011;11034;48.556;9.342;2022-11-04T14:22:32;2.45;;;1.08;;
21743;SDS011;11034;48.556;9.342;2022-11-04T14:25:16;5.88;;;1.40;;
21743;SDS011;11034;48.556;9.342;2022-11-04T14:27:52;4.05;;;1.17;;
21743;SDS011;11034;48.556;9.342;2022-11-04T14:33:20;4.05;;;1.20;;
21743;SDS011;11034;48.556;9.342;2022-11-04T14:35:55;3.95;;;1.27;;
21743;SDS011;11034;48.556;9.342;2022-11-04T14:38:39;4.72;;;1.25;;
21743;SDS011;11034;48.556;9.342;2022-11-04T14:41:13;5.03;;;1.50;;
21743;SDS011;11034;48.556;9.342;2022-11-04T14:43:48;5.15;;;1.45;;
21743;SDS011;11034;48.556;9.342;2022-11-04T14:46:21;4.80;;;1.60;;
21743;SDS011;11034;48.556;9.342;2022-11-04T14:48:53;7.97;;;1.40;;
21743;SDS011;11034;48.556;9.342;2022-11-04T14:51:26;8.25;;;1.42;;
21743;SDS011;11034;48.556;9.342;2022-11-04T14:53:58;4.72;;;1.42;;
21743;SDS011;11034;48.556;9.342;2022-11-04T14:56:31;5.88;;;1.50;;
21743;SDS011;11034;48.556;9.342;2022-11-04T14:59:02;5.35;;;1.60;;
21743;SDS011;11034;48.556;9.342;2022-11-04T15:01:34;6.15;;;1.25;;
21743;SDS011;11034;48.556;9.342;2022-11-04T15:04:05;6.63;;;1.20;;
21743;SDS011;11034;48.556;9.342;2022-11-04T15:06:40;6.45;;;1.35;;
21743;SDS011;11034;48.556;9.342;2022-11-04T15:09:24;4.30;;;0.98;;
21743;SDS011;11034;48.556;9.342;2022-11-04T15:11:59;2.83;;;1.13;;
21743;SDS011;11034;48.556;9.342;2022-11-04T15:14:52;4.43;;;1.17;;
21743;SDS011;11034;48.556;9.342;2022-11-04T15:17:25;6.00;;;1.17;;
21743;SDS011;11034;48.556;9.342;2022-11-04T15:19:58;3.95;;;1.17;;
21743;SDS011;11034;48.556;9.342;2022-11-04T15:22:33;3.95;;;1.10;;
21743;SDS011;11034;48.556;9.342;2022-11-04T15:25:02;2.63;;;1.00;;
21743;SDS011;11034;48.556;9.342;2022-11-04T15:27:32;3.83;;;1.20;;
21743;SDS011;11034;48.556;9.342;2022-11-04T15:30:03;3.15;;;1.20;;
21743;SDS011;11034;48.556;9.342;2022-11-04T15:32:51;3.53;;;1.30;;
21743;SDS011;11034;48.556;9.342;2022-11-04T15:35:20;5.28;;;1.50;;
21743;SDS011;11034;48.556;9.342;2022-11-04T15:37:54;7.45;;;1.50;;
21743;SDS011;11034;48.556;9.342;2022-11-04T15:40:26;2.65;;;1.13;;
21743;SDS011;11034;48.556;9.342;2022-11-04T15:42:58;3.92;;;1.00;;
21743;SDS011;11034;48.556;9.342;2022-11-04T15:45:34;5.25;;;1.10;;
21743;SDS011;11034;48.556;9.342;2022-11-04T15:50:53;5.82;;;1.60;;
21743;SDS011;11034;48.556;9.342;2022-11-04T15:53:45;3.38;;;1.48;;
21743;SDS011;11034;48.556;9.342;2022-11-04T15:56:19;2.85;;;1.00;;
21743;SDS011;11034;48.556;9.342;2022-11-04T15:58:49;2.95;;;1.02;;
21743;SDS011;11034;48.556;9.342;2022-11-04T16:01:22;6.20;;;1.50;;
21743;SDS011;11034;48.556;9.342;2022-11-04T16:03:52;4.38;;;1.20;;
21743;SDS011;11034;48.556;9.342;2022-11-04T16:06:31;5.68;;;1.52;;
21743;SDS011;11034;48.556;9.342;2022-11-04T16:09:04;2.13;;;0.90;;
21743;SDS011;11034;48.556;9.342;2022-11-04T16:14:54;2.90;;;1.02;;
21743;SDS011;11034;48.556;9.342;2022-11-04T16:17:24;2.22;;;1.15;;
21743;SDS011;11034;48.556;9.342;2022-11-04T16:19:54;3.40;;;1.30;;
21743;SDS011;11034;48.556;9.342;2022-11-04T16:22:27;4.88;;;3.15;;
21743;SDS011;11034;48.556;9.342;2022-11-04T16:24:56;4.88;;;3.72;;
21743;SDS011;11034;48.556;9.342;2022-11-04T16:27:28;3.85;;;3.20;;
21743;SDS011;11034;48.556;9.342;2022-11-04T16:30:05;6.22;;;5.63;;
21743;SDS011;11034;48.556;9.342;2022-11-04T16:32:40;4.57;;;3.50;;
21743;SDS011;11034;48.556;9.342;2022-11-04T16:35:14;4.35;;;3.00;;
21743;SDS011;11034;48.556;9.342;2022-11-04T16:37:44;1.40;;;1.00;;
21743;SDS011;11034;48.556;9.342;2022-11-04T16:40:14;1.05;;;0.80;;
21743;SDS011;11034;48.556;9.342;2022-11-04T16:42:43;0.65;;;0.50;;
21743;SDS011;11034;48.556;9.342;2022-11-04T16:45:16;1.02;;;0.60;;
21743;SDS011;11034;48.556;9.342;2022-11-04T16:47:51;2.08;;;0.80;;
21743;SDS011;11034;48.556;9.342;2022-11-04T16:50:19;0.95;;;0.60;;
21743;SDS011;11034;48.556;9.342;2022-11-04T16:52:49;0.68;;;0.50;;
21743;SDS011;11034;48.556;9.342;2022-11-04T16:55:18;1.70;;;0.68;;
21743;SDS011;11034;48.556;9.342;2022-11-04T16:57:48;1.95;;;0.45;;
21743;SDS011;11034;48.556;9.342;2022-11-04T17:00:22;2.95;;;0.60;;
21743;SDS011;11034;48.556;9.342;2022-11-04T17:02:52;2.20;;;0.80;;
21743;SDS011;11034;48.556;9.342;2022-11-04T17:05:23;0.63;;;0.57;;
21743;SDS011;11034;48.556;9.342;2022-11-04T17:07:51;0.85;;;0.68;;
21743;SDS011;11034;48.556;9.342;2022-11-04T17:10:29;1.27;;;0.57;;
21743;SDS011;11034;48.556;9.342;2022-11-04T17:13:00;1.73;;;0.93;;
21743;SDS011;11034;48.556;9.342;2022-11-04T17:15:28;1.75;;;0.85;;
21743;SDS011;11034;48.556;9.342;2022-11-04T17:17:57;1.80;;;1.00;;
21743;SDS011;11034;48.556;9.342;2022-11-04T17:20:25;1.58;;;0.77;;
21743;SDS011;11034;48.556;9.342;2022-11-04T17:22:55;0.65;;;0.50;;
21743;SDS011;11034;48.556;9.342;2022-11-04T17:25:25;0.60;;;0.60;;
21743;SDS011;11034;48.556;9.342;2022-11-04T17:27:54;2.00;;;0.80;;
21743;SDS011;11034;48.556;9.342;2022-11-04T17:30:22;1.48;;;0.47;;
21743;SDS011;11034;48.556;9.342;2022-11-04T17:32:51;0.90;;;0.70;;
21743;SDS011;11034;48.556;9.342;2022-11-04T17:35:20;2.55;;;0.80;;
21743;SDS011;11034;48.556;9.342;2022-11-04T17:37:49;2.33;;;0.60;;
21743;SDS011;11034;48.556;9.342;2022-11-04T17:40:20;0.68;;;0.60;;
21743;SDS011;11034;48.556;9.342;2022-11-04T17:42:49;0.70;;;0.60;;
21743;SDS011;11034;48.556;9.342;2022-11-04T17:45:38;1.95;;;0.68;;
21743;SDS011;11034;48.556;9.342;2022-11-04T17:48:06;4.03;;;1.95;;
21743;SDS011;11034;48.556;9.342;2022-11-04T17:50:37;1.75;;;0.70;;
21743;SDS011;11034;48.556;9.342;2022-11-04T17:53:07;1.05;;;0.70;;
21743;SDS011;11034;48.556;9.342;2022-11-04T17:55:38;1.42;;;1.00;;
21743;SDS011;11034;48.556;9.342;2022-11-04T17:58:11;2.28;;;0.70;;
21743;SDS011;11034;48.556;9.342;2022-11-04T18:00:40;1.23;;;0.70;;
21743;SDS011;11034;48.556;9.342;2022-11-04T18:03:10;0.85;;;0.63;;
21743;SDS011;11034;48.556;9.342;2022-11-04T18:05:40;1.02;;;0.85;;
21743;SDS011;11034;48.556;9.342;2022-11-04T18:14:50;1.80;;;1.00;;
21743;SDS011;11034;48.556;9.342;2022-11-04T18:17:19;8.55;;;4.72;;
21743;SDS011;11034;48.556;9.342;2022-11-04T18:19:50;4.15;;;3.20;;
21743;SDS011;11034;48.556;9.342;2022-11-04T18:22:19;3.05;;;1.95;;
21743;SDS011;11034;48.556;9.342;2022-11-04T18:24:48;2.45;;;1.40;;
21743;SDS011;11034;48.556;9.342;2022-11-04T18:27:18;3.75;;;1.67;;
21743;SDS011;11034;48.556;9.342;2022-11-04T18:29:49;3.85;;;1.80;;
21743;SDS011;11034;48.556;9.342;2022-11-04T18:32:20;4.82;;;2.10;;
21743;SDS011;11034;48.556;9.342;2022-11-04T18:34:48;5.13;;;2.15;;
21743;SDS011;11034;48.556;9.342;2022-11-04T18:37:17;3.72;;;2.53;;
21743;SDS011;11034;48.556;9.342;2022-11-04T18:39:48;6.03;;;2.92;;
21743;SDS011;11034;48.556;9.342;2022-11-04T18:42:21;5.30;;;2.90;;
21743;SDS011;11034;48.556;9.342;2022-11-04T18:44:49;5.90;;;3.10;;
21743;SDS011;11034;48.556;9.342;2022-11-04T18:47:19;4.95;;;3.13;;
21743;SDS011;11034;48.556;9.342;2022-11-04T18:49:49;6.57;;;3.45;;
21743;SDS011;11034;48.556;9.342;2022-11-04T18:52:17;8.13;;;3.20;;
21743;SDS011;11034;48.556;9.342;2022-11-04T18:54:49;6.57;;;3.22;;
21743;SDS011;11034;48.556;9.342;2022-11-04T18:57:18;6.60;;;3.40;;
21743;SDS011;11034;48.556;9.342;2022-11-04T18:59:46;7.82;;;3.65;;
21743;SDS011;11034;48.556;9.342;2022-11-04T19:02:15;6.28;;;3.53;;
21743;SDS011;11034;48.556;9.342;2022-11-04T19:04:46;6.95;;;3.30;;
21743;SDS011;11034;48.556;9.342;2022-11-04T19:07:14;7.22;;;3.65;;
21743;SDS011;11034;48.556;9.342;2022-11-04T19:09:43;3.63;;;2.42;;
21743;SDS011;11034;48.556;9.342;2022-11-04T19:12:14;6.03;;;2.35;;
21743;SDS011;11034;48.556;9.342;2022-11-04T19:15:00;4.38;;;2.00;;
21743;SDS011;11034;48.556;9.342;2022-11-04T19:17:29;3.85;;;2.00;;
21743;SDS011;11034;48.556;9.342;2022-11-04T19:20:00;6.53;;;2.10;;
21743;SDS011;11034;48.556;9.342;2022-11-04T19:22:36;5.03;;;2.35;;
21743;SDS011;11034;48.556;9.342;2022-11-04T19:25:05;3.78;;;2.25;;
21743;SDS011;11034;48.556;9.342;2022-11-04T19:27:35;5.22;;;2.63;;
21743;SDS011;11034;48.556;9.342;2022-11-04T19:30:03;5.60;;;1.98;;
21743;SDS011;11034;48.556;9.342;2022-11-04T19:32:34;5.50;;;1.67;;
21743;SDS011;11034;48.556;9.342;2022-11-04T19:35:02;4.57;;;1.45;;
21743;SDS011;11034;48.556;9.342;2022-11-04T19:37:31;3.95;;;1.25;;
21743;SDS011;11034;48.556;9.342;2022-11-04T19:39:59;2.80;;;1.20;;
21743;SDS011;11034;48.556;9.342;2022-11-04T19:42:27;3.50;;;1.45;;
21743;SDS011;11034;48.556;9.342;2022-11-04T19:45:14;4.32;;;1.70;;
21743;SDS011;11034;48.556;9.342;2022-11-04T19:47:44;3.03;;;1.50;;
21743;SDS011;11034;48.556;9.342;2022-11-04T19:50:12;2.28;;;1.60;;
21743;SDS011;11034;48.556;9.342;2022-11-04T19:52:40;3.88;;;1.50;;
21743;SDS011;11034;48.556;9.342;2022-11-04T19:55:09;2.50;;;0.95;;
21743;SDS011;11034;48.556;9.342;2022-11-04T19:57:37;2.20;;;0.90;;
21743;SDS011;11034;48.556;9.342;2022-11-04T20:00:07;31.08;;;16.45;;
21743;SDS011;11034;48.556;9.342;2022-11-04T20:02:38;9.45;;;4.50;;
21743;SDS011;11034;48.556;9.342;2022-11-04T20:05:06;1.85;;;1.13;;
21743;SDS011;11034;48.556;9.342;2022-11-04T20:07:35;4.20;;;1.30;;
21743;SDS011;11034;48.556;9.342;2022-11-04T20:10:05;5.53;;;2.20;;
21743;SDS011;11034;48.556;9.342;2022-11-04T20:12:33;26.67;;;12.68;;
21743;SDS011;11034;48.556;9.342;2022-11-04T20:15:19;18.52;;;6.70;;
21743;SDS011;11034;48.556;9.342;2022-11-04T20:17:52;10.57;;;5.55;;
21743;SDS011;11034;48.556;9.342;2022-11-04T20:20:20;10.65;;;6.45;;
21743;SDS011;11034;48.556;9.342;2022-11-04T20:22:48;16.65;;;9.05;;
21743;SDS011;11034;48.556;9.342;2022-11-04T20:25:17;31.10;;;17.85;;
21743;SDS011;11034;48.556;9.342;2022-11-04T20:27:45;23.58;;;14.73;;
21743;SDS011;11034;48.556;9.342;2022-11-04T20:30:13;29.35;;;20.17;;
21743;SDS011;11034;48.556;9.342;2022-11-04T20:32:41;16.83;;;8.85;;
21743;SDS011;11034;48.556;9.342;2022-11-04T20:35:10;6.32;;;4.50;;
21743;SDS011;11034;48.556;9.342;2022-11-04T20:37:39;11.82;;;6.53;;
21743;SDS011;11034;48.556;9.342;2022-11-04T20:40:11;8.48;;;4.82;;
21743;SDS011;11034;48.556;9.342;2022-11-04T20:42:40;14.80;;;9.25;;
21743;SDS011;11034;48.556;9.342;2022-11-04T20:45:13;7.90;;;3.15;;
21743;SDS011;11034;48.556;9.342;2022-11-04T20:47:42;7.32;;;2.72;;
21743;SDS011;11034;48.556;9.342;2022-11-04T20:50:11;4.80;;;3.28;;
21743;SDS011;11034;48.556;9.342;2022-11-04T20:52:39;6.72;;;2.25;;
21743;SDS011;11034;48.556;9.342;2022-11-04T20:55:08;4.13;;;2.00;;
21743;SDS011;11034;48.556;9.342;2022-11-04T20:57:37;4.63;;;2.40;;
21743;SDS011;11034;48.556;9.342;2022-11-04T21:00:05;5.22;;;2.30;;
21743;SDS011;11034;48.556;9.342;2022-11-04T21:02:34;8.90;;;4.95;;
21743;SDS011;11034;48.556;9.342;2022-11-04T21:05:03;9.07;;;4.18;;
21743;SDS011;11034;48.556;9.342;2022-11-04T21:07:32;8.13;;;4.03;;
21743;SDS011;11034;48.556;9.342;2022-11-04T21:10:01;13.38;;;7.65;;
21743;SDS011;11034;48.556;9.342;2022-11-04T21:12:30;9.75;;;4.32;;
21743;SDS011;11034;48.556;9.342;2022-11-04T21:14:58;10.60;;;6.63;;
21743;SDS011;11034;48.556;9.342;2022-11-04T21:17:26;11.40;;;6.28;;
21743;SDS011;11034;48.556;9.342;2022-11-04T21:19:54;7.93;;;4.78;;
21743;SDS011;11034;48.556;9.342;2022-11-04T21:22:22;9.10;;;4.20;;
21743;SDS011;11034;48.556;9.342;2022-11-04T21:24:51;6.45;;;4.78;;
21743;SDS011;11034;48.556;9.342;2022-11-04T21:27:19;9.23;;;6.07;;
21743;SDS011;11034;48.556;9.342;2022-11-04T21:29:47;10.20;;;6.28;;
21743;SDS011;11034;48.556;9.342;2022-11-04T21:32:15;10.13;;;5.40;;
21743;SDS011;11034;48.556;9.342;2022-11-04T21:34:43;11.90;;;6.53;;
21743;SDS011;11034;48.556;9.342;2022-11-04T21:37:11;9.90;;;6.70;;
21743;SDS011;11034;48.556;9.342;2022-11-04T21:39:39;11.95;;;7.43;;
21743;SDS011;11034;48.556;9.342;2022-11-04T21:42:09;10.88;;;7.35;;
21743;SDS011;11034;48.556;9.342;2022-11-04T21:44:37;12.38;;;8.07;;
21743;SDS011;11034;48.556;9.342;2022-11-04T21:47:05;10.07;;;7.75;;
21743;SDS011;11034;48.556;9.342;2022-11-04T21:49:33;10.52;;;6.85;;
21743;SDS011;11034;48.556;9.342;2022-11-04T21:52:03;9.80;;;6.65;;
21743;SDS011;11034;48.556;9.342;2022-11-04T21:54:31;11.55;;;7.07;;
21743;SDS011;11034;48.556;9.342;2022-11-04T21:56:59;12.30;;;6.90;;
21743;SDS011;11034;48.556;9.342;2022-11-04T21:59:30;14.05;;;7.30;;
21743;SDS011;11034;48.556;9.342;2022-11-04T22:01:58;11.65;;;7.05;;
21743;SDS011;11034;48.556;9.342;2022-11-04T22:04:26;10.93;;;7.00;;
21743;SDS011;11034;48.556;9.342;2022-11-04T22:06:54;12.73;;;7.03;;
21743;SDS011;11034;48.556;9.342;2022-11-04T22:09:27;8.70;;;6.93;;
21743;SDS011;11034;48.556;9.342;2022-11-04T22:11:55;12.02;;;6.63;;
21743;SDS011;11034;48.556;9.342;2022-11-04T22:14:23;11.75;;;7.07;;
21743;SDS011;11034;48.556;9.342;2022-11-04T22:16:56;11.57;;;6.82;;
21743;SDS011;11034;48.556;9.342;2022-11-04T22:19:24;11.20;;;7.25;;
21743;SDS011;11034;48.556;9.342;2022-11-04T22:21:52;11.80;;;6.60;;
21743;SDS011;11034;48.556;9.342;2022-11-04T22:24:20;11.15;;;7.80;;
21743;SDS011;11034;48.556;9.342;2022-11-04T22:26:48;13.25;;;8.07;;
21743;SDS011;11034;48.556;9.342;2022-11-04T22:29:16;11.50;;;6.70;;
21743;SDS011;11034;48.556;9.342;2022-11-04T22:31:44;12.93;;;7.07;;
21743;SDS011;11034;48.556;9.342;2022-11-04T22:34:16;15.32;;;8.05;;
21743;SDS011;11034;48.556;9.342;2022-11-04T22:36:44;13.20;;;8.13;;
21743;SDS011;11034;48.556;9.342;2022-11-04T22:39:15;12.60;;;8.73;;
21743;SDS011;11034;48.556;9.342;2022-11-04T22:41:46;15.00;;;9.95;;
21743;SDS011;11034;48.556;9.342;2022-11-04T22:44:15;18.30;;;9.85;;
21743;SDS011;11034;48.556;9.342;2022-11-04T22:46:43;13.68;;;9.68;;
21743;SDS011;11034;48.556;9.342;2022-11-04T22:49:11;18.83;;;10.23;;
21743;SDS011;11034;48.556;9.342;2022-11-04T22:51:41;14.35;;;9.95;;
21743;SDS011;11034;48.556;9.342;2022-11-04T22:54:09;13.48;;;9.60;;
21743;SDS011;11034;48.556;9.342;2022-11-04T22:56:37;13.00;;;8.73;;
21743;SDS011;11034;48.556;9.342;2022-11-04T22:59:05;12.93;;;8.65;;
21743;SDS011;11034;48.556;9.342;2022-11-04T23:01:34;11.20;;;7.13;;
21743;SDS011;11034;48.556;9.342;2022-11-04T23:04:02;8.07;;;5.35;;
21743;SDS011;11034;48.556;9.342;2022-11-04T23:06:31;7.32;;;4.70;;
21743;SDS011;11034;48.556;9.342;2022-11-04T23:09:00;7.32;;;4.80;;
21743;SDS011;11034;48.556;9.342;2022-11-04T23:11:30;9.18;;;4.68;;
21743;SDS011;11034;48.556;9.342;2022-11-04T23:14:16;9.57;;;4.88;;
21743;SDS011;11034;48.556;9.342;2022-11-04T23:17:15;6.38;;;4.88;;
21743;SDS011;11034;48.556;9.342;2022-11-04T23:20:04;6.55;;;3.85;;
21743;SDS011;11034;48.556;9.342;2022-11-04T23:22:35;8.60;;;4.47;;
21743;SDS011;11034;48.556;9.342;2022-11-04T23:25:22;8.25;;;3.70;;
21743;SDS011;11034;48.556;9.342;2022-11-04T23:27:51;6.80;;;4.82;;
21743;SDS011;11034;48.556;9.342;2022-11-04T23:30:39;8.10;;;5.00;;
21743;SDS011;11034;48.556;9.342;2022-11-04T23:33:09;9.98;;;5.40;;
21743;SDS011;11034;48.556;9.342;2022-11-04T23:35:40;8.10;;;5.13;;
21743;SDS011;11034;48.556;9.342;2022-11-04T23:38:27;7.82;;;5.03;;
21743;SDS011;11034;48.556;9.342;2022-11-04T23:40:57;9.48;;;4.95;;
21743;SDS011;11034;48.556;9.342;2022-11-04T23:43:44;6.13;;;4.72;;
21743;SDS011;11034;48.556;9.342;2022-11-04T23:46:12;8.60;;;5.40;;
21743;SDS011;11034;48.556;9.342;2022-11-04T23:49:07;12.15;;;6.20;;
21743;SDS011;11034;48.556;9.342;2022-11-04T23:51:54;9.10;;;5.85;;
21743;SDS011;11034;48.556;9.342;2022-11-04T23:54:40;9.45;;;6.47;;
21743;SDS011;11034;48.556;9.342;2022-11-04T23:57:26;10.05;;;6.13;;
